KDNL

Daniel Field Airport

Augusta, Georgia, USA
METAR KDNL 191453Z AUTO 21006KT 10SM FEW018 28/23 A3004 RMK AO2 SLP165 T02780228 51006
Observed Flight Rules
Aug-19 @ 14:53 UTC (44 minutes ago) Visual Flight Rules
Wind Visibility Clouds
210° at 6 knots 10 miles
  • Few at 1,800' AGL
Temperatures Readings
Current 28°C / 82°F
Dewpoint 23°C / 73°F
Humidity 74%
Altimeter 30.04" Hg
Pressure 1016.5 hPa
Elevation 130
METAR KDNL 191453Z AUTO 21006KT 10SM FEW018 28/23 A3004 RMK AO2 SLP165 T02780228 51006
Observed Flight Rules
Aug-19 @ 14:53 UTC
(44 minutes ago)
VFR
Wind Visibility
210° at 6 knots 10 miles
Clouds
  • Few at 1,800' AGL
Temperature Dewpoint
28°C / 82°F 23°C / 73°F
Humidity Altimeter Pressure
74% 30.04" Hg 1016.5 hPa